Time;durP1;ratioP1;P1;durP2;ratioP2;P2;SDS_P1;SDS_P2;PMS_P1;PMS_P2;Temp;Humidity;BMP_temperature;BMP_pressure;BME280_temperature;BME280_humidity;BME280_pressure;Samples;Min_cycle;Max_cycle;Signal;HPM_P1;HPM_P2
2023/08/15 00:00:36;;;;;;;6.60;4.72;;;19.20;99.90;;;;;;5049651;28;20040;-72
2023/08/15 00:03:01;;;;;;;7.55;5.13;;;19.10;99.90;;;;;;5053645;28;20454;-72
2023/08/15 00:05:27;;;;;;;7.80;4.90;;;19.10;99.90;;;;;;5056428;28;20041;-73
2023/08/15 00:07:53;;;;;;;7.88;5.20;;;19.10;99.90;;;;;;5051268;28;20456;-72
2023/08/15 00:10:19;;;;;;;7.75;5.22;;;19.10;99.90;;;;;;5056375;28;20509;-72
2023/08/15 00:12:44;;;;;;;9.25;5.03;;;19.10;99.90;;;;;;5034898;28;20107;-72
2023/08/15 00:15:10;;;;;;;7.38;5.10;;;19.10;99.90;;;;;;5058600;28;20071;-72
2023/08/15 00:17:36;;;;;;;10.30;6.00;;;19.10;99.90;;;;;;5055231;28;20128;-72
2023/08/15 00:20:02;;;;;;;13.77;5.90;;;19.00;99.90;;;;;;5051566;28;20128;-72
2023/08/15 00:22:28;;;;;;;12.40;6.32;;;19.00;99.90;;;;;;5053235;28;20047;-72
2023/08/15 00:24:53;;;;;;;9.93;5.18;;;19.00;99.90;;;;;;5049070;28;20029;-73
2023/08/15 00:27:19;;;;;;;10.98;5.63;;;19.00;99.90;;;;;;5034712;28;20520;-72
2023/08/15 00:29:45;;;;;;;10.60;5.60;;;19.00;99.90;;;;;;5048675;28;20044;-72
2023/08/15 00:32:10;;;;;;;11.25;5.35;;;19.10;99.90;;;;;;5050489;28;20135;-72
2023/08/15 00:34:36;;;;;;;12.93;5.95;;;19.10;99.90;;;;;;5054818;28;20393;-72
2023/08/15 00:37:02;;;;;;;7.65;5.40;;;19.10;99.90;;;;;;5049448;28;20466;-72
2023/08/15 00:39:28;;;;;;;11.02;6.50;;;19.10;99.90;;;;;;5050913;28;20407;-72
2023/08/15 00:41:54;;;;;;;11.70;5.53;;;19.10;99.90;;;;;;5059433;28;20123;-72
2023/08/15 00:44:19;;;;;;;8.93;6.05;;;19.10;99.90;;;;;;5059812;28;20036;-72
2023/08/15 00:46:45;;;;;;;10.27;6.03;;;19.10;99.90;;;;;;5053203;28;20128;-72
2023/08/15 00:49:11;;;;;;;13.13;6.50;;;19.10;99.90;;;;;;5050363;28;20294;-73
2023/08/15 00:51:37;;;;;;;8.95;5.60;;;19.10;99.90;;;;;;5049495;28;20057;-72
2023/08/15 00:54:03;;;;;;;;;;;19.10;99.90;;;;;;5052757;28;20115;-72
2023/08/15 00:56:29;;;;;;;10.88;5.85;;;19.10;99.90;;;;;;5052956;28;20003;-72
2023/08/15 00:58:54;;;;;;;10.07;5.75;;;19.10;99.90;;;;;;5053220;28;20055;-72
2023/08/15 01:01:21;;;;;;;9.02;5.55;;;19.10;99.90;;;;;;5053335;28;20055;-72
2023/08/15 01:03:49;;;;;;;7.35;4.60;;;19.10;99.90;;;;;;5053536;28;20105;-72
2023/08/15 01:06:17;;;;;;;11.18;5.63;;;19.10;99.90;;;;;;5052815;28;20048;-72
2023/08/15 01:08:43;;;;;;;7.28;5.15;;;19.00;99.90;;;;;;5050747;28;20044;-72
2023/08/15 01:11:09;;;;;;;7.45;5.03;;;19.00;99.90;;;;;;5057345;28;20040;-72
2023/08/15 01:13:39;;;;;;;;;;;19.00;99.90;;;;;;5058824;28;20169;-72
2023/08/15 01:16:14;;;;;;;7.85;5.60;;;19.00;99.90;;;;;;5033875;28;20071;-73
2023/08/15 01:18:57;;;;;;;8.82;4.80;;;18.90;99.90;;;;;;5051301;28;20112;-72
2023/08/15 01:21:29;;;;;;;7.57;4.88;;;18.90;99.90;;;;;;5053536;28;20044;-72
2023/08/15 01:23:56;;;;;;;11.13;5.25;;;18.90;99.90;;;;;;5061084;28;20490;-72
2023/08/15 01:26:21;;;;;;;7.90;4.60;;;18.90;99.90;;;;;;5052371;28;20040;-72
2023/08/15 01:28:47;;;;;;;7.82;5.00;;;18.90;99.90;;;;;;5053144;28;20072;-72
2023/08/15 01:31:28;;;;;;;10.60;5.00;;;18.90;99.90;;;;;;5047567;28;20045;-72
2023/08/15 01:34:15;;;;;;;12.82;5.15;;;18.90;99.90;;;;;;5056744;28;20049;-72
2023/08/15 01:37:09;;;;;;;10.98;5.10;;;18.80;99.90;;;;;;5057232;28;20063;-72
2023/08/15 01:39:38;;;;;;;11.02;5.30;;;18.80;99.90;;;;;;5052707;28;20121;-72
2023/08/15 01:42:05;;;;;;;7.60;5.50;;;18.80;99.90;;;;;;5050099;28;20041;-72
2023/08/15 01:44:32;;;;;;;11.27;5.57;;;18.80;99.90;;;;;;5057266;28;20094;-72
2023/08/15 01:46:58;;;;;;;8.98;5.90;;;18.70;99.90;;;;;;5051347;28;20052;-72
2023/08/15 01:49:24;;;;;;;11.15;5.57;;;18.70;99.90;;;;;;5048180;28;20032;-72
2023/08/15 01:51:51;;;;;;;8.88;4.97;;;18.70;99.90;;;;;;5040335;28;20371;-72
2023/08/15 01:54:17;;;;;;;10.88;6.20;;;18.70;99.90;;;;;;5055592;28;20532;-72
2023/08/15 01:56:42;;;;;;;11.40;5.72;;;18.70;99.90;;;;;;5049856;28;20067;-72
2023/08/15 01:59:08;;;;;;;9.85;5.93;;;18.80;99.90;;;;;;5050802;28;20499;-72
2023/08/15 02:01:34;;;;;;;10.50;6.35;;;18.70;99.90;;;;;;5049630;28;20037;-72
2023/08/15 02:04:00;;;;;;;17.45;5.35;;;18.80;99.90;;;;;;5051730;28;20070;-72
2023/08/15 02:06:25;;;;;;;6.80;4.63;;;18.80;99.90;;;;;;5037474;28;20127;-72
2023/08/15 02:08:54;;;;;;;7.60;4.28;;;18.70;99.90;;;;;;5053098;28;20210;-72
2023/08/15 02:11:20;;;;;;;;;;;18.70;99.90;;;;;;5055245;28;20388;-72
2023/08/15 02:13:48;;;;;;;7.88;4.75;;;18.70;99.90;;;;;;5051835;28;20007;-72
2023/08/15 02:16:17;;;;;;;10.65;5.13;;;18.70;99.90;;;;;;5053463;28;20039;-72
2023/08/15 02:18:43;;;;;;;7.70;4.30;;;18.70;99.90;;;;;;5052256;28;20410;-72
2023/08/15 02:21:09;;;;;;;8.25;4.80;;;18.80;99.90;;;;;;5050265;28;20041;-72
2023/08/15 02:23:34;;;;;;;13.90;5.05;;;18.80;99.90;;;;;;5049997;28;20144;-72
2023/08/15 02:26:00;;;;;;;8.95;4.30;;;18.80;99.90;;;;;;5049709;28;20494;-72
2023/08/15 02:28:26;;;;;;;14.15;4.85;;;18.80;99.90;;;;;;5057742;28;20041;-72
2023/08/15 02:30:55;;;;;;;8.93;4.90;;;18.80;99.90;;;;;;5054479;28;20098;-72
2023/08/15 02:33:20;;;;;;;8.15;4.50;;;18.80;99.90;;;;;;5051357;28;20422;-72
2023/08/15 02:35:46;;;;;;;9.98;4.97;;;18.80;99.90;;;;;;5049626;28;20045;-72
2023/08/15 02:38:12;;;;;;;8.50;4.50;;;18.80;99.90;;;;;;5052136;28;20510;-72
2023/08/15 02:40:37;;;;;;;7.82;4.55;;;18.80;99.90;;;;;;5051632;28;20035;-72
2023/08/15 02:43:03;;;;;;;10.90;4.88;;;18.80;99.90;;;;;;5054913;28;20048;-72
2023/08/15 02:45:29;;;;;;;6.30;4.35;;;18.80;99.90;;;;;;5056334;28;20032;-72
2023/08/15 02:47:55;;;;;;;;;;;18.80;99.90;;;;;;5063216;28;20041;-72
2023/08/15 02:50:21;;;;;;;9.30;4.63;;;18.80;99.90;;;;;;5055707;28;19916;-72
2023/08/15 02:52:47;;;;;;;8.65;4.43;;;18.80;99.90;;;;;;5049162;28;20037;-72
2023/08/15 02:55:13;;;;;;;6.18;3.95;;;18.70;99.90;;;;;;5055452;28;20521;-72
2023/08/15 02:57:38;;;;;;;10.40;4.07;;;18.70;99.90;;;;;;5056053;28;20068;-72
2023/08/15 03:00:05;;;;;;;10.20;4.72;;;18.70;99.90;;;;;;5040084;28;20432;-72
2023/08/15 03:02:31;;;;;;;10.65;4.65;;;18.70;99.90;;;;;;5061137;28;20791;-72
2023/08/15 03:04:57;;;;;;;8.30;4.68;;;18.70;99.90;;;;;;5061516;28;20047;-72
2023/08/15 03:07:24;;;;;;;8.35;4.55;;;18.70;99.90;;;;;;5050637;28;20044;-72
2023/08/15 03:09:49;;;;;;;7.05;4.43;;;18.80;99.90;;;;;;5060141;28;20072;-72
2023/08/15 03:12:15;;;;;;;7.07;4.70;;;18.70;99.90;;;;;;5054546;28;20068;-72
2023/08/15 03:14:41;;;;;;;7.50;4.57;;;18.70;99.90;;;;;;5057606;28;20590;-72
2023/08/15 03:17:09;;;;;;;7.78;4.80;;;18.70;99.90;;;;;;5060470;28;20524;-72
2023/08/15 03:19:35;;;;;;;9.18;4.72;;;18.80;99.90;;;;;;5063328;28;20190;-72
2023/08/15 03:22:01;;;;;;;8.85;4.70;;;18.70;99.90;;;;;;5053502;28;20632;-72
2023/08/15 03:24:30;;;;;;;14.32;5.13;;;18.80;99.90;;;;;;5048422;28;20040;-72
2023/08/15 03:26:57;;;;;;;9.50;4.80;;;18.80;99.90;;;;;;5051264;28;20049;-72
2023/08/15 03:29:23;;;;;;;12.23;5.35;;;18.80;99.90;;;;;;5057936;28;20055;-72
2023/08/15 03:31:55;;;;;;;10.18;5.80;;;18.80;99.90;;;;;;5053970;28;20037;-72
2023/08/15 03:34:21;;;;;;;8.23;5.13;;;18.80;99.90;;;;;;5056363;28;20051;-72
2023/08/15 03:36:47;;;;;;;8.77;5.28;;;18.80;99.90;;;;;;5052370;28;20037;-72
2023/08/15 03:39:12;;;;;;;10.65;5.50;;;18.80;99.90;;;;;;5051327;28;20036;-72
2023/08/15 03:41:38;;;;;;;7.70;4.57;;;18.80;99.90;;;;;;5061848;28;20040;-72
2023/08/15 03:44:04;;;;;;;10.65;5.25;;;18.80;99.90;;;;;;5055560;28;20041;-72
2023/08/15 03:46:30;;;;;;;;;;;18.80;99.90;;;;;;5049406;28;20041;-72
2023/08/15 03:48:55;;;;;;;8.15;4.50;;;18.80;99.90;;;;;;5055558;28;19923;-72
2023/08/15 03:51:21;;;;;;;9.75;5.30;;;18.80;99.90;;;;;;5059915;28;20397;-72
2023/08/15 03:53:47;;;;;;;9.15;5.00;;;18.80;99.90;;;;;;5055859;28;20040;-72
2023/08/15 03:56:12;;;;;;;12.05;5.30;;;18.80;99.90;;;;;;5052817;28;20212;-72
2023/08/15 03:58:38;;;;;;;7.97;5.32;;;18.80;99.90;;;;;;5056510;28;20043;-72
2023/08/15 04:01:04;;;;;;;12.27;5.13;;;18.80;99.90;;;;;;5054317;28;20040;-72
2023/08/15 04:03:30;;;;;;;9.93;4.95;;;18.80;99.90;;;;;;5052562;28;20075;-72
2023/08/15 04:05:55;;;;;;;8.55;4.55;;;18.80;99.90;;;;;;5051289;28;20140;-72
2023/08/15 04:08:21;;;;;;;8.88;5.20;;;18.80;99.90;;;;;;5058519;28;20577;-72
2023/08/15 04:10:47;;;;;;;9.15;4.65;;;18.80;99.90;;;;;;5049606;28;20494;-72
2023/08/15 04:13:13;;;;;;;;;;;18.80;99.90;;;;;;5053791;28;20414;-72
2023/08/15 04:15:40;;;;;;;11.80;5.18;;;18.80;99.90;;;;;;5051352;28;19924;-72
2023/08/15 04:18:07;;;;;;;9.30;5.50;;;18.80;99.90;;;;;;5061511;28;20060;-72
2023/08/15 04:20:38;;;;;;;8.40;5.13;;;18.80;99.90;;;;;;5056280;28;20360;-72
2023/08/15 04:23:05;;;;;;;10.50;4.90;;;18.80;99.90;;;;;;5051364;28;20089;-72
2023/08/15 04:25:32;;;;;;;9.20;4.50;;;18.80;99.90;;;;;;5056528;28;20049;-72
2023/08/15 04:27:57;;;;;;;9.00;5.60;;;18.80;99.90;;;;;;5056057;28;20415;-72
2023/08/15 04:30:23;;;;;;;8.68;5.07;;;18.80;99.90;;;;;;5056993;28;20052;-72
2023/08/15 04:32:49;;;;;;;9.05;5.22;;;18.80;99.90;;;;;;5057305;28;20102;-72
2023/08/15 04:35:15;;;;;;;9.52;5.20;;;18.80;99.90;;;;;;5050167;28;20516;-72
2023/08/15 04:37:40;;;;;;;10.45;4.60;;;18.80;99.90;;;;;;5053413;28;20098;-72
2023/08/15 04:40:12;;;;;;;8.48;5.10;;;18.80;99.90;;;;;;5051629;28;20094;-72
2023/08/15 04:42:39;;;;;;;8.18;4.70;;;18.80;99.90;;;;;;5053329;28;20485;-72
2023/08/15 04:45:05;;;;;;;9.88;4.57;;;18.90;99.90;;;;;;5039716;28;20079;-72
2023/08/15 04:47:35;;;;;;;12.88;5.03;;;18.90;99.90;;;;;;5040647;28;20090;-72
2023/08/15 04:50:01;;;;;;;11.40;4.55;;;18.90;99.90;;;;;;5054053;28;20293;-72
2023/08/15 04:52:26;;;;;;;;;;;18.80;99.90;;;;;;5060305;28;20479;-72
2023/08/15 04:54:52;;;;;;;8.88;4.30;;;18.80;99.90;;;;;;5059927;28;19948;-72
2023/08/15 04:57:18;;;;;;;8.80;4.70;;;18.80;99.90;;;;;;5051815;28;20495;-72
2023/08/15 04:59:43;;;;;;;8.45;4.68;;;18.80;99.90;;;;;;5033042;28;20075;-72
2023/08/15 05:02:09;;;;;;;9.95;4.22;;;18.80;99.90;;;;;;5051734;28;20396;-72
2023/08/15 05:04:35;;;;;;;7.88;4.78;;;18.80;99.90;;;;;;5050972;28;20049;-72
2023/08/15 05:07:00;;;;;;;13.52;4.63;;;18.80;99.90;;;;;;5051932;28;20050;-72
2023/08/15 05:09:31;;;;;;;10.10;4.00;;;18.80;99.90;;;;;;5053934;28;20200;-72
2023/08/15 05:11:56;;;;;;;7.60;4.05;;;18.80;99.90;;;;;;5050205;28;20102;-72
2023/08/15 05:14:22;;;;;;;7.70;3.28;;;18.70;99.90;;;;;;5052935;28;20033;-74
2023/08/15 05:16:50;;;;;;;7.32;3.42;;;18.70;99.90;;;;;;5051741;28;20502;-76
2023/08/15 05:19:15;;;;;;;9.70;3.40;;;18.80;99.90;;;;;;5058817;28;20146;-75
2023/08/15 05:21:41;;;;;;;6.32;3.10;;;18.70;99.90;;;;;;5048712;28;20040;-73
2023/08/15 05:24:07;;;;;;;9.68;3.30;;;18.70;99.90;;;;;;5047249;28;20037;-75
2023/08/15 05:26:33;;;;;;;8.95;2.97;;;18.70;99.90;;;;;;5051779;28;20123;-74
2023/08/15 05:28:59;;;;;;;6.20;3.10;;;18.70;99.90;;;;;;5061933;28;20479;-74
2023/08/15 05:31:24;;;;;;;7.80;3.20;;;18.70;99.90;;;;;;5034593;28;20053;-74
2023/08/15 05:33:50;;;;;;;6.65;3.28;;;18.70;99.90;;;;;;5053498;28;20193;-74
2023/08/15 05:36:16;;;;;;;8.30;3.28;;;18.70;99.90;;;;;;5049369;28;20106;-75
2023/08/15 05:38:42;;;;;;;9.13;3.25;;;18.60;99.90;;;;;;5054373;28;20098;-76
2023/08/15 05:41:07;;;;;;;7.32;3.22;;;18.60;99.90;;;;;;5055276;28;20486;-75
2023/08/15 05:43:36;;;;;;;7.13;3.30;;;18.60;99.90;;;;;;5049442;28;20048;-77
2023/08/15 05:46:01;;;;;;;9.02;3.45;;;18.70;99.90;;;;;;5053241;28;20052;-79
2023/08/15 05:48:29;;;;;;;7.55;3.30;;;18.60;99.90;;;;;;5061923;28;20072;-77
2023/08/15 05:50:55;;;;;;;7.45;3.08;;;18.60;99.90;;;;;;5059571;28;20045;-78
2023/08/15 05:53:23;;;;;;;5.95;3.00;;;18.60;99.90;;;;;;5054875;28;20040;-79
2023/08/15 05:55:49;;;;;;;5.80;2.88;;;18.60;99.90;;;;;;5051604;28;20479;-76
2023/08/15 05:58:14;;;;;;;6.75;2.78;;;18.60;99.90;;;;;;5052873;28;20773;-76
2023/08/15 06:00:42;;;;;;;6.03;3.17;;;18.60;99.90;;;;;;5055913;28;20079;-74
2023/08/15 06:03:08;;;;;;;5.47;2.83;;;18.60;99.90;;;;;;5050006;28;20044;-75
2023/08/15 06:05:34;;;;;;;8.25;3.00;;;18.60;99.90;;;;;;5050391;28;20509;-73
2023/08/15 06:07:59;;;;;;;5.90;2.38;;;18.60;99.90;;;;;;5053504;28;20041;-72
2023/08/15 06:10:25;;;;;;;7.97;2.85;;;18.60;99.90;;;;;;5051829;28;20406;-76
2023/08/15 06:12:51;;;;;;;6.40;2.10;;;18.60;99.90;;;;;;5050596;28;20049;-72
2023/08/15 06:15:17;;;;;;;3.97;1.83;;;18.70;99.90;;;;;;5048873;28;20087;-72
2023/08/15 06:17:43;;;;;;;4.60;2.30;;;18.70;99.90;;;;;;5052093;28;20120;-72
2023/08/15 06:20:10;;;;;;;7.35;2.08;;;18.80;99.90;;;;;;5052353;28;20478;-72
2023/08/15 06:22:36;;;;;;;10.45;2.40;;;18.80;99.90;;;;;;5047792;28;20128;-72
2023/08/15 06:25:02;;;;;;;7.80;2.60;;;18.80;99.90;;;;;;5051996;28;20041;-72
2023/08/15 06:27:28;;;;;;;8.30;2.33;;;18.80;99.90;;;;;;5058057;28;20064;-72
2023/08/15 06:29:53;;;;;;;7.13;2.05;;;18.90;99.90;;;;;;5041026;28;20036;-80
2023/08/15 06:32:30;;;;;;;9.15;2.55;;;19.00;99.90;;;;;;5056287;28;20050;-75
2023/08/15 06:34:56;;;;;;;7.85;2.60;;;19.00;99.90;;;;;;5054935;28;20072;-73
2023/08/15 06:37:22;;;;;;;10.02;2.28;;;19.10;99.90;;;;;;5052694;28;20084;-73
2023/08/15 06:39:48;;;;;;;12.23;2.63;;;19.10;99.90;;;;;;5058576;28;20044;-77
2023/08/15 06:42:14;;;;;;;7.90;2.28;;;19.10;99.90;;;;;;5059224;28;20079;-73
2023/08/15 06:44:43;;;;;;;9.30;2.58;;;19.20;99.90;;;;;;5054357;28;20049;-72
2023/08/15 06:47:09;;;;;;;7.47;2.55;;;19.20;99.90;;;;;;5051322;28;20122;-72
2023/08/15 06:49:35;;;;;;;9.20;2.67;;;19.20;99.90;;;;;;5056827;28;20481;-72
2023/08/15 06:52:01;;;;;;;10.57;2.50;;;19.30;99.90;;;;;;5059791;28;20036;-72
2023/08/15 06:54:26;;;;;;;10.52;2.42;;;19.30;99.90;;;;;;5035730;28;20044;-74
2023/08/15 06:56:52;;;;;;;11.10;3.17;;;19.30;99.90;;;;;;5057545;28;20047;-73
2023/08/15 06:59:19;;;;;;;9.07;2.92;;;19.40;99.90;;;;;;5062248;28;20045;-72
2023/08/15 07:01:45;;;;;;;7.97;2.50;;;19.40;99.90;;;;;;5019919;22;20081;-73
2023/08/15 07:04:11;;;;;;;7.93;2.13;;;19.50;99.90;;;;;;4983296;28;20061;-73
2023/08/15 07:06:37;;;;;;;6.40;2.75;;;19.50;99.90;;;;;;4981189;28;20048;-73
2023/08/15 07:09:06;;;;;;;6.25;2.60;;;19.50;99.90;;;;;;4977319;28;20499;-73
2023/08/15 07:11:32;;;;;;;6.25;2.28;;;19.60;99.90;;;;;;4976063;28;20042;-73
2023/08/15 07:13:58;;;;;;;12.60;2.72;;;19.70;99.90;;;;;;4979907;28;20607;-73
2023/08/15 07:16:23;;;;;;;7.40;2.60;;;19.70;99.90;;;;;;4969039;28;20069;-73
2023/08/15 07:18:49;;;;;;;8.85;2.20;;;19.70;99.90;;;;;;4974563;28;20193;-73
2023/08/15 07:21:15;;;;;;;7.45;2.55;;;19.70;99.90;;;;;;4979161;28;20361;-73
2023/08/15 07:23:41;;;;;;;8.30;2.45;;;19.80;99.90;;;;;;4975284;28;20082;-73
2023/08/15 07:26:06;;;;;;;15.57;2.40;;;19.80;99.90;;;;;;4972116;28;20500;-73
2023/08/15 07:28:32;;;;;;;8.13;2.30;;;19.90;99.90;;;;;;4973856;28;20053;-73
2023/08/15 07:30:58;;;;;;;7.85;2.33;;;20.00;99.90;;;;;;4975358;28;20057;-73
2023/08/15 07:33:23;;;;;;;4.03;2.10;;;20.00;99.90;;;;;;4977671;28;20038;-73
2023/08/15 07:35:49;;;;;;;3.92;1.70;;;20.10;99.90;;;;;;4979551;28;20415;-73
2023/08/15 07:38:15;;;;;;;7.20;1.90;;;20.10;99.90;;;;;;4976898;28;20358;-74
2023/08/15 07:40:41;;;;;;;7.70;2.10;;;20.10;99.90;;;;;;4973268;28;20046;-73
2023/08/15 07:43:06;;;;;;;3.42;1.73;;;20.20;99.90;;;;;;4974546;28;20481;-73
2023/08/15 07:45:32;;;;;;;5.57;2.40;;;20.20;99.90;;;;;;4965502;28;20045;-73
2023/08/15 07:47:58;;;;;;;7.00;1.42;;;20.20;99.90;;;;;;4973829;28;20050;-72
2023/08/15 07:50:26;;;;;;;5.35;1.83;;;20.30;99.90;;;;;;4974194;28;20109;-73
2023/08/15 07:52:52;;;;;;;5.68;2.00;;;20.30;99.90;;;;;;4971512;28;20055;-74
2023/08/15 07:55:19;;;;;;;7.60;2.40;;;20.40;99.90;;;;;;4977650;28;20053;-74
2023/08/15 07:57:44;;;;;;;;;;;20.50;99.90;;;;;;4973609;28;20047;-74
2023/08/15 08:00:12;;;;;;;7.63;2.42;;;20.50;99.90;;;;;;4981253;28;19917;-74
2023/08/15 08:02:39;;;;;;;7.68;2.20;;;20.50;99.90;;;;;;4969098;28;20394;-74
2023/08/15 08:05:07;;;;;;;8.85;1.80;;;20.60;99.90;;;;;;4972924;28;20066;-73
2023/08/15 08:07:39;;;;;;;7.80;1.98;;;20.60;99.90;;;;;;4974878;28;20068;-73
2023/08/15 08:10:05;;;;;;;8.88;1.52;;;20.70;99.90;;;;;;4972555;28;20058;-73
2023/08/15 08:12:31;;;;;;;4.25;1.50;;;20.70;99.90;;;;;;4973817;28;20045;-73
2023/08/15 08:15:00;;;;;;;5.22;1.27;;;20.70;99.90;;;;;;4977001;28;20405;-73
2023/08/15 08:17:26;;;;;;;4.85;1.45;;;20.70;99.90;;;;;;4973603;28;20042;-73
2023/08/15 08:19:52;;;;;;;;;;;20.80;99.90;;;;;;4971153;28;20093;-73
2023/08/15 08:22:18;;;;;;;6.60;1.48;;;20.80;99.90;;;;;;4976389;28;20339;-73
2023/08/15 08:24:44;;;;;;;3.40;1.38;;;20.90;99.90;;;;;;4968285;28;20117;-73
2023/08/15 08:27:09;;;;;;;4.72;1.58;;;20.90;99.90;;;;;;4972335;28;20497;-73
2023/08/15 08:29:35;;;;;;;4.70;1.50;;;21.00;99.90;;;;;;4975384;28;20031;-74
2023/08/15 08:32:01;;;;;;;;;;;21.00;99.90;;;;;;4980789;28;20071;-72
2023/08/15 08:34:27;;;;;;;4.78;1.00;;;21.10;99.90;;;;;;4979828;28;19936;-73
2023/08/15 08:36:52;;;;;;;5.90;1.60;;;21.10;99.90;;;;;;4962148;28;20054;-73
2023/08/15 08:39:18;;;;;;;6.03;1.15;;;21.20;99.90;;;;;;4977199;28;20112;-73
2023/08/15 08:41:44;;;;;;;4.57;1.77;;;21.20;99.90;;;;;;4972619;28;20202;-73
2023/08/15 08:44:10;;;;;;;;;;;21.20;99.90;;;;;;4977820;28;20050;-73
2023/08/15 08:46:36;;;;;;;4.07;0.93;;;21.20;99.90;;;;;;4979322;28;19976;-73
2023/08/15 08:49:03;;;;;;;;;;;21.30;99.90;;;;;;4978242;28;20062;-72
2023/08/15 08:51:31;;;;;;;4.97;1.25;;;21.30;99.90;;;;;;4988317;28;20348;-73
2023/08/15 08:53:56;;;;;;;6.13;0.95;;;21.40;99.90;;;;;;4976794;28;20046;-73
2023/08/15 08:56:22;;;;;;;;;;;21.50;99.90;;;;;;4973368;28;20050;-74
2023/08/15 08:59:11;;;;;;;6.82;1.05;;;21.50;99.90;;;;;;4976710;28;19922;-72
2023/08/15 09:01:38;;;;;;;4.05;0.90;;;21.60;99.90;;;;;;4965106;28;20105;-71
2023/08/15 09:04:04;;;;;;;1.98;0.80;;;21.70;99.90;;;;;;4969344;28;20134;-72
2023/08/15 09:06:30;;;;;;;;;;;21.70;99.90;;;;;;4972247;28;20129;-72
2023/08/15 09:08:58;;;;;;;4.28;0.82;;;21.80;99.90;;;;;;4971820;28;19945;-71
2023/08/15 09:11:31;;;;;;;8.30;2.08;;;21.90;99.90;;;;;;4971760;28;20129;-71
2023/08/15 09:14:00;;;;;;;5.85;1.17;;;21.90;99.90;;;;;;4973239;28;20050;-71
2023/08/15 09:16:26;;;;;;;3.08;1.48;;;21.90;99.90;;;;;;4973727;28;20039;-71
2023/08/15 09:18:52;;;;;;;;;;;22.00;99.90;;;;;;4955117;28;20072;-70
2023/08/15 09:21:17;;;;;;;5.00;1.33;;;22.00;99.90;;;;;;4946022;28;19922;-71
2023/08/15 09:23:45;;;;;;;5.15;1.25;;;22.00;99.90;;;;;;4974792;28;20038;-71
2023/08/15 09:26:14;;;;;;;4.00;1.10;;;22.10;99.90;;;;;;4951374;28;20054;-71
2023/08/15 09:28:41;;;;;;;6.32;1.08;;;22.10;99.90;;;;;;4972267;28;20108;-70
2023/08/15 09:31:09;;;;;;;5.65;1.38;;;22.20;99.90;;;;;;4969544;28;20150;-71
2023/08/15 09:33:39;;;;;;;3.50;1.23;;;22.30;99.90;;;;;;4969799;28;20129;-70
2023/08/15 09:36:10;;;;;;;3.72;1.20;;;22.40;99.90;;;;;;4975800;28;20101;-71
2023/08/15 09:38:37;;;;;;;6.65;1.10;;;22.30;99.90;;;;;;4972814;28;20035;-71
2023/08/15 09:41:03;;;;;;;6.32;1.38;;;22.20;99.90;;;;;;4977602;28;20126;-71
2023/08/15 09:43:29;;;;;;;;;;;22.10;99.90;;;;;;4968402;28;20121;-70
2023/08/15 09:45:57;;;;;;;5.07;1.30;;;22.10;99.90;;;;;;4967934;28;19988;-71
2023/08/15 09:48:23;;;;;;;5.93;2.00;;;22.00;99.90;;;;;;4969909;28;20058;-70
2023/08/15 09:50:48;;;;;;;;;;;22.00;99.90;;;;;;4970208;28;20054;-70
2023/08/15 09:53:15;;;;;;;3.47;1.10;;;22.10;99.90;;;;;;4967739;28;19917;-71
2023/08/15 09:55:41;;;;;;;;;;;22.20;99.90;;;;;;4968170;28;20189;-70
2023/08/15 09:58:07;;;;;;;4.07;1.10;;;22.30;99.90;;;;;;4967925;28;20024;-71
2023/08/15 10:00:35;;;;;;;2.97;0.75;;;22.40;99.90;;;;;;4951701;28;20039;-71
2023/08/15 10:03:40;;;;;;;3.65;1.27;;;22.40;99.90;;;;;;4969747;28;20043;-70
2023/08/15 10:06:09;;;;;;;4.68;1.05;;;22.50;99.90;;;;;;4976233;28;20543;-70
2023/08/15 10:08:40;;;;;;;4.03;1.10;;;22.50;99.90;;;;;;4968083;28;20054;-70
2023/08/15 10:11:09;;;;;;;3.15;0.85;;;22.50;99.90;;;;;;4987133;28;20182;-71
2023/08/15 10:13:37;;;;;;;3.60;0.90;;;22.50;99.90;;;;;;4958178;28;20058;-71
2023/08/15 10:16:06;;;;;;;2.97;0.80;;;22.50;99.90;;;;;;4968078;28;20046;-71
2023/08/15 10:18:32;;;;;;;2.92;0.80;;;22.60;99.90;;;;;;4967836;28;20047;-71
2023/08/15 10:20:58;;;;;;;;;;;22.70;99.90;;;;;;4985823;28;20049;-71
2023/08/15 10:23:31;;;;;;;5.15;0.93;;;22.70;99.90;;;;;;4955131;28;20019;-71
2023/08/15 10:25:58;;;;;;;4.47;1.80;;;22.80;99.90;;;;;;4983614;28;20518;-70
2023/08/15 10:28:27;;;;;;;2.35;0.90;;;22.80;99.90;;;;;;4969753;28;20148;-71
2023/08/15 10:30:54;;;;;;;2.60;0.70;;;23.00;99.90;;;;;;4966993;28;20068;-71
2023/08/15 10:33:24;;;;;;;4.60;1.17;;;23.10;99.90;;;;;;4967754;28;20050;-71
2023/08/15 10:35:56;;;;;;;2.58;1.00;;;23.10;99.90;;;;;;4958650;28;20122;-71
2023/08/15 10:38:32;;;;;;;3.20;1.10;;;23.00;99.90;;;;;;4963961;28;20093;-69
2023/08/15 10:41:03;;;;;;;4.32;1.00;;;23.00;99.90;;;;;;4968804;28;20050;-71
2023/08/15 10:43:31;;;;;;;2.72;1.02;;;23.00;99.90;;;;;;4967415;28;20145;-71
2023/08/15 10:45:59;;;;;;;4.28;1.02;;;23.00;99.90;;;;;;4962284;28;20038;-71
2023/08/15 10:48:48;;;;;;;4.38;1.20;;;23.00;99.90;;;;;;4966799;28;20043;-71
2023/08/15 10:51:19;;;;;;;4.25;0.82;;;23.00;99.90;;;;;;4952725;28;20334;-71
2023/08/15 10:53:53;;;;;;;3.05;1.00;;;23.00;99.90;;;;;;4966957;28;20051;-71
2023/08/15 10:56:30;;;;;;;5.90;1.48;;;23.00;99.90;;;;;;4953813;28;20473;-71
2023/08/15 10:58:56;;;;;;;3.33;0.82;;;23.00;99.90;;;;;;4960362;28;20082;-71
2023/08/15 11:01:24;;;;;;;4.20;1.15;;;23.00;99.90;;;;;;4942954;28;20031;-71
2023/08/15 11:03:53;;;;;;;4.65;0.88;;;23.10;99.90;;;;;;4950986;28;20062;-71
2023/08/15 11:06:19;;;;;;;3.28;0.98;;;23.10;99.90;;;;;;4972312;28;20046;-71
2023/08/15 11:08:51;;;;;;;3.28;0.82;;;23.10;99.90;;;;;;4980899;28;20051;-71
2023/08/15 11:11:16;;;;;;;3.72;0.90;;;23.10;99.90;;;;;;4973327;28;20380;-71
2023/08/15 11:13:44;;;;;;;;;;;23.20;99.90;;;;;;4952258;28;20051;-71
2023/08/15 11:16:11;;;;;;;4.22;0.75;;;23.20;99.90;;;;;;4974855;28;19928;-71
2023/08/15 11:18:37;;;;;;;2.92;0.75;;;23.30;99.90;;;;;;4969827;28;20050;-71
2023/08/15 11:21:08;;;;;;;2.00;0.93;;;23.30;99.90;;;;;;4970943;28;20476;-71
2023/08/15 11:23:34;;;;;;;3.03;1.08;;;23.40;99.90;;;;;;4987699;28;20047;-71
2023/08/15 11:26:04;;;;;;;;;;;23.40;99.90;;;;;;4972715;28;20054;-71
2023/08/15 11:28:30;;;;;;;3.83;1.13;;;23.30;99.90;;;;;;4971894;28;19984;-71
2023/08/15 11:31:17;;;;;;;1.60;0.80;;;23.30;99.90;;;;;;4983975;28;20050;-71
2023/08/15 11:33:43;;;;;;;4.03;0.85;;;23.30;99.90;;;;;;4962269;28;20057;-71
2023/08/15 11:36:12;;;;;;;2.60;0.85;;;23.40;99.90;;;;;;4969889;28;20214;-72
2023/08/15 11:38:39;;;;;;;1.52;0.57;;;23.40;99.90;;;;;;4966986;28;20074;-71
2023/08/15 11:41:05;;;;;;;3.28;0.82;;;23.50;99.90;;;;;;4960081;28;20072;-71
2023/08/15 11:43:33;;;;;;;6.40;0.98;;;23.70;99.90;;;;;;4968283;28;20523;-70
2023/08/15 11:46:06;;;;;;;3.25;0.90;;;23.80;99.90;;;;;;4969572;28;20377;-71
2023/08/15 11:48:33;;;;;;;2.63;0.90;;;23.90;99.90;;;;;;4971590;28;20042;-71
2023/08/15 11:50:59;;;;;;;4.07;1.00;;;23.90;99.90;;;;;;4969860;28;20046;-71
2023/08/15 11:53:25;;;;;;;3.92;1.20;;;23.80;99.90;;;;;;4985375;28;20095;-71
2023/08/15 11:55:51;;;;;;;4.03;1.10;;;23.70;99.90;;;;;;4968704;28;20096;-71
2023/08/15 11:58:27;;;;;;;5.45;1.20;;;23.60;99.90;;;;;;4965202;28;20042;-72
2023/08/15 12:01:06;;;;;;;3.65;0.95;;;23.50;99.90;;;;;;4969130;28;20045;-71
2023/08/15 12:03:33;;;;;;;3.97;0.73;;;23.50;99.90;;;;;;4963399;28;20062;-72
2023/08/15 12:06:01;;;;;;;4.97;1.55;;;23.30;99.90;;;;;;4981327;28;20121;-71
2023/08/15 12:08:29;;;;;;;2.70;1.30;;;23.20;99.90;;;;;;4968756;28;20058;-70
2023/08/15 12:10:56;;;;;;;4.32;1.25;;;23.10;99.90;;;;;;4982479;28;20050;-71
2023/08/15 12:13:39;;;;;;;5.15;1.02;;;23.00;99.90;;;;;;4965865;28;20393;-71
2023/08/15 12:16:07;;;;;;;7.57;1.63;;;23.00;99.90;;;;;;4952576;28;20113;-71
2023/08/15 12:18:33;;;;;;;3.33;1.15;;;22.90;99.90;;;;;;4978485;28;20039;-70
2023/08/15 12:21:00;;;;;;;4.15;1.17;;;22.90;99.90;;;;;;4969489;28;20043;-70
2023/08/15 12:23:26;;;;;;;4.18;1.15;;;22.90;99.90;;;;;;4952244;28;20104;-71
2023/08/15 12:25:51;;;;;;;;;;;22.90;99.90;;;;;;4975232;28;20438;-70
2023/08/15 12:28:20;;;;;;;5.10;1.10;;;22.80;99.90;;;;;;4966740;28;19922;-71
2023/08/15 12:30:47;;;;;;;8.00;1.88;;;22.80;99.90;;;;;;4975403;28;20049;-70
2023/08/15 12:33:13;;;;;;;5.57;1.83;;;22.80;99.90;;;;;;4970760;28;20481;-71
2023/08/15 12:35:39;;;;;;;5.65;1.20;;;22.80;99.90;;;;;;4955239;28;20043;-70
2023/08/15 12:38:04;;;;;;;;;;;22.90;99.90;;;;;;4976183;28;20046;-71
2023/08/15 12:40:31;;;;;;;5.22;1.58;;;23.00;99.90;;;;;;4972838;28;19965;-71
2023/08/15 12:43:00;;;;;;;7.35;1.83;;;23.10;99.90;;;;;;4971198;28;20047;-70
2023/08/15 12:45:26;;;;;;;6.53;1.50;;;23.10;99.90;;;;;;4968105;28;20381;-71
2023/08/15 12:47:52;;;;;;;5.50;1.63;;;23.10;99.90;;;;;;4968094;28;20110;-70
2023/08/15 12:50:18;;;;;;;;;;;23.10;99.90;;;;;;4952647;28;20038;-71